KNQA/NQA METAR and TAF weather

Enter ICAO airport designator
Station Type Date Time Source
KNQA METAR 2020/04/04 10:50 UTC NOAA

KNQA 041050Z 00000KT 10SM FEW035 11/10 A3003


Station Type Date Time Source
KNQA Decoded METAR 2020/04/04 10:50 UTC NOAA

Millington, Millington Municipal Airport, TN, United States (KNQA) 35-21-24N 089-52-13W
Apr 04, 2020 - 06:50 AM EDT / 2020.04.04 1050 UTC
Wind: Calm:0
Visibility: 10 mile(s):0
Sky conditions: mostly clear
Temperature: 51 F (11 C)
Dew Point: 50 F (10 C)
Relative Humidity: 93%
Pressure (altimeter): 30.03 in. Hg (1016 hPa)
ob: KNQA 041050Z 00000KT 10SM FEW035 11/10 A3003
cycle: 11

Station Type Date Time Source
KNQA TAF UTC NOAA

Error!

Example: see airport list